createdAt,value
2022-12-03T00:00:51.327Z,66.66
2022-12-03T00:03:39.471Z,66.69
2022-12-03T00:06:34.178Z,66.71
2022-12-03T00:09:23.882Z,66.71
2022-12-03T00:12:12.739Z,66.92
2022-12-03T00:15:00.650Z,66.74
2022-12-03T00:17:48.415Z,66.69
2022-12-03T00:20:36.088Z,66.67
2022-12-03T00:23:24.136Z,66.70
2022-12-03T00:26:13.584Z,66.89
2022-12-03T00:29:01.347Z,66.70
2022-12-03T00:31:49.221Z,66.88
2022-12-03T00:34:36.916Z,66.83
2022-12-03T00:37:24.714Z,66.83
2022-12-03T00:40:13.379Z,66.87
2022-12-03T00:43:01.301Z,66.74
2022-12-03T00:45:51.159Z,66.80
2022-12-03T00:48:38.961Z,66.86
2022-12-03T00:51:26.840Z,66.80
2022-12-03T00:54:14.605Z,66.74
2022-12-03T00:57:02.653Z,66.80
2022-12-03T00:59:50.573Z,66.84
2022-12-03T01:02:38.427Z,66.94
2022-12-03T01:05:26.336Z,66.95
2022-12-03T01:08:14.452Z,66.90
2022-12-03T01:11:02.306Z,66.87
2022-12-03T01:13:50.132Z,66.88
2022-12-03T01:16:38.227Z,66.64
2022-12-03T01:19:26.154Z,66.86
2022-12-03T01:22:13.947Z,66.65
2022-12-03T01:25:01.884Z,66.74
2022-12-03T01:27:51.198Z,66.77
2022-12-03T01:30:58.953Z,66.78
2022-12-03T01:33:46.777Z,66.76
2022-12-03T01:36:34.628Z,66.90
2022-12-03T01:39:23.654Z,66.75
2022-12-03T01:42:20.655Z,66.84
2022-12-03T01:45:22.537Z,66.80
2022-12-03T01:48:15.411Z,66.85
2022-12-03T01:51:03.387Z,66.91
2022-12-03T01:53:51.359Z,67.12
2022-12-03T01:56:39.212Z,67.04
2022-12-03T01:59:35.834Z,67.12
2022-12-03T02:02:27.951Z,66.98
2022-12-03T02:05:22.655Z,67.03
2022-12-03T02:08:29.816Z,66.83
2022-12-03T02:11:31.884Z,66.83
2022-12-03T02:14:22.079Z,66.97
2022-12-03T02:17:10.021Z,67.02
2022-12-03T02:20:00.171Z,66.82
2022-12-03T02:23:12.193Z,66.83
2022-12-03T02:25:59.974Z,67.16
2022-12-03T02:28:48.595Z,67.02
2022-12-03T02:31:36.623Z,67.03
2022-12-03T02:34:42.511Z,67.04
2022-12-03T02:37:34.749Z,66.92
2022-12-03T02:40:26.112Z,67.26
2022-12-03T02:43:16.737Z,66.93
2022-12-03T02:46:05.510Z,66.94
2022-12-03T02:48:53.334Z,67.00
2022-12-03T02:51:41.300Z,66.98
2022-12-03T02:54:29.239Z,66.89
2022-12-03T02:57:17.553Z,67.05
2022-12-03T03:00:10.250Z,66.99
2022-12-03T03:02:58.634Z,67.02
2022-12-03T03:05:47.490Z,67.11
2022-12-03T03:08:37.264Z,66.94
2022-12-03T03:11:25.594Z,66.73
2022-12-03T03:14:13.345Z,67.03
2022-12-03T03:17:01.200Z,66.79
2022-12-03T03:19:48.901Z,66.98
2022-12-03T03:22:39.679Z,66.88
2022-12-03T03:25:27.618Z,66.80
2022-12-03T03:28:16.595Z,66.93
2022-12-03T03:31:06.695Z,66.89
2022-12-03T03:33:54.487Z,66.95
2022-12-03T03:36:42.546Z,67.00
2022-12-03T03:39:30.438Z,66.82
2022-12-03T03:42:18.642Z,67.20
2022-12-03T03:45:08.110Z,66.99
2022-12-03T03:47:57.606Z,66.98
2022-12-03T03:50:45.695Z,66.85
2022-12-03T03:53:33.295Z,66.95
2022-12-03T03:56:21.843Z,66.89
2022-12-03T03:59:09.475Z,66.73
2022-12-03T04:01:57.144Z,66.72
2022-12-03T04:04:44.904Z,66.86
2022-12-03T04:07:32.508Z,66.83
2022-12-03T04:10:38.699Z,66.83
2022-12-03T04:13:26.357Z,66.86
2022-12-03T04:16:14.037Z,66.95
2022-12-03T04:19:01.733Z,67.08
2022-12-03T04:22:08.059Z,67.00
2022-12-03T04:25:15.783Z,66.77
2022-12-03T04:28:21.945Z,66.76
2022-12-03T04:31:28.070Z,66.85
2022-12-03T04:34:34.126Z,66.74
2022-12-03T04:37:21.934Z,66.74
2022-12-03T04:40:29.771Z,66.93
2022-12-03T04:43:17.718Z,66.92
2022-12-03T04:46:05.524Z,66.72
2022-12-03T04:48:53.209Z,66.96
2022-12-03T04:51:40.812Z,66.78
2022-12-03T04:54:28.878Z,66.71
2022-12-03T04:57:17.305Z,66.75
2022-12-03T05:00:05.958Z,66.73
2022-12-03T05:02:53.848Z,66.68
2022-12-03T05:05:41.460Z,66.40
2022-12-03T05:08:29.135Z,66.52
2022-12-03T05:11:16.993Z,66.61
2022-12-03T05:14:04.960Z,66.49
2022-12-03T05:16:52.719Z,66.57
2022-12-03T05:19:59.135Z,66.51
2022-12-03T05:22:46.791Z,66.51
2022-12-03T05:25:34.386Z,66.52
2022-12-03T05:28:23.178Z,66.70
2022-12-03T05:31:11.010Z,66.58
2022-12-03T05:33:58.691Z,66.48
2022-12-03T05:36:46.427Z,66.59
2022-12-03T05:39:34.050Z,66.46
2022-12-03T05:42:51.008Z,66.54
2022-12-03T05:45:44.232Z,66.57
2022-12-03T05:48:31.955Z,66.50
2022-12-03T05:51:19.685Z,66.33
2022-12-03T05:54:07.315Z,66.36
2022-12-03T05:56:55.001Z,66.10
2022-12-03T05:59:42.813Z,66.08
2022-12-03T06:02:34.841Z,65.82
2022-12-03T06:05:24.511Z,66.13
2022-12-03T06:08:12.645Z,66.17
2022-12-03T06:11:03.446Z,66.02
2022-12-03T06:13:51.430Z,66.03
2022-12-03T06:16:40.614Z,65.95
2022-12-03T06:19:28.485Z,66.02
2022-12-03T06:22:16.338Z,65.70
2022-12-03T06:25:06.949Z,65.92
2022-12-03T06:27:55.281Z,65.98
2022-12-03T06:30:43.335Z,66.00
2022-12-03T06:33:31.051Z,65.85
2022-12-03T06:36:22.792Z,65.65
2022-12-03T06:39:11.162Z,65.68
2022-12-03T06:41:58.830Z,65.59
2022-12-03T06:44:46.555Z,65.63
2022-12-03T06:47:34.157Z,65.80
2022-12-03T06:50:21.863Z,65.55
2022-12-03T06:53:09.514Z,65.63
2022-12-03T06:55:57.241Z,65.49
2022-12-03T06:58:44.907Z,65.28
2022-12-03T07:01:32.556Z,65.43
2022-12-03T07:04:20.297Z,65.46
2022-12-03T07:07:07.987Z,65.51
2022-12-03T07:09:55.907Z,65.21
2022-12-03T07:12:43.569Z,65.35
2022-12-03T07:15:31.216Z,65.32
2022-12-03T07:18:18.890Z,65.15
2022-12-03T07:21:06.450Z,65.11
2022-12-03T07:23:54.081Z,64.93
2022-12-03T07:26:42.933Z,64.71
2022-12-03T07:29:30.537Z,64.87
2022-12-03T07:32:18.185Z,64.99
2022-12-03T07:35:07.560Z,64.90
2022-12-03T07:37:55.425Z,64.59
2022-12-03T07:40:43.005Z,64.82
2022-12-03T07:43:30.842Z,64.61
2022-12-03T07:46:18.454Z,64.49
2022-12-03T07:49:06.114Z,64.37
2022-12-03T07:51:54.422Z,64.33
2022-12-03T07:54:42.058Z,64.38
2022-12-03T07:57:29.618Z,64.26
2022-12-03T08:00:17.641Z,64.17
2022-12-03T08:03:05.220Z,64.27
2022-12-03T08:05:52.910Z,64.36
2022-12-03T08:08:40.540Z,64.38
2022-12-03T08:11:29.159Z,64.12
2022-12-03T08:14:19.366Z,64.02
2022-12-03T08:17:12.268Z,63.97
2022-12-03T08:19:59.890Z,64.03
2022-12-03T08:22:53.358Z,63.89
2022-12-03T08:25:41.035Z,63.79
2022-12-03T08:28:28.698Z,63.68
2022-12-03T08:31:32.264Z,63.68
2022-12-03T08:34:27.919Z,63.83
2022-12-03T08:37:18.928Z,63.69
2022-12-03T08:40:33.540Z,63.74
2022-12-03T08:43:26.114Z,63.72
2022-12-03T08:46:19.162Z,63.69
2022-12-03T08:49:07.069Z,63.45
2022-12-03T08:51:59.961Z,63.39
2022-12-03T08:54:55.992Z,63.21
2022-12-03T08:57:44.008Z,63.16
2022-12-03T09:00:32.606Z,63.45
2022-12-03T09:03:20.305Z,63.55
2022-12-03T09:06:08.153Z,63.63
2022-12-03T09:08:55.965Z,63.35
2022-12-03T09:11:44.411Z,63.30
2022-12-03T09:14:32.037Z,63.38
2022-12-03T09:17:19.817Z,63.63
2022-12-03T09:20:10.289Z,63.52
2022-12-03T09:22:58.193Z,63.59
2022-12-03T09:25:45.930Z,63.46
2022-12-03T09:28:33.658Z,63.74
2022-12-03T09:31:21.382Z,63.54
2022-12-03T09:34:10.139Z,63.59
2022-12-03T09:36:57.939Z,63.42
2022-12-03T09:39:47.912Z,63.79
2022-12-03T09:42:36.305Z,63.56
2022-12-03T09:45:24.322Z,63.54
2022-12-03T09:48:15.553Z,63.41
2022-12-03T09:51:04.674Z,63.36
2022-12-03T09:53:52.535Z,63.48
2022-12-03T09:56:40.236Z,63.60
2022-12-03T09:59:31.816Z,63.52
2022-12-03T10:02:28.693Z,63.57
2022-12-03T10:05:21.477Z,63.37
2022-12-03T10:08:13.497Z,63.59
2022-12-03T10:11:01.415Z,63.58
2022-12-03T10:13:49.678Z,64.04
2022-12-03T10:16:40.338Z,63.85
2022-12-03T10:19:31.820Z,64.02
2022-12-03T10:22:19.566Z,64.09
2022-12-03T10:25:13.441Z,64.24
2022-12-03T10:28:03.996Z,63.97
2022-12-03T10:30:55.825Z,64.06
2022-12-03T10:33:47.262Z,64.01
2022-12-03T10:36:35.501Z,63.99
2022-12-03T10:39:23.174Z,63.72
2022-12-03T10:42:16.539Z,63.59
2022-12-03T10:45:12.273Z,63.67
2022-12-03T10:48:02.958Z,63.71
2022-12-03T10:51:03.382Z,63.39
2022-12-03T10:53:51.430Z,63.43
2022-12-03T10:56:39.199Z,63.56
2022-12-03T10:59:33.137Z,63.56
2022-12-03T11:02:25.023Z,63.94
2022-12-03T11:05:16.898Z,64.10
2022-12-03T11:08:04.763Z,64.14
2022-12-03T11:11:29.130Z,64.22
2022-12-03T11:14:51.152Z,64.21
2022-12-03T11:17:53.259Z,64.20
2022-12-03T11:20:47.018Z,64.29
2022-12-03T11:23:46.773Z,64.02
2022-12-03T11:26:37.433Z,63.84
2022-12-03T11:29:51.345Z,64.14
2022-12-03T11:32:39.036Z,64.22
2022-12-03T11:35:35.896Z,64.21
2022-12-03T11:38:40.894Z,64.20
2022-12-03T11:41:31.908Z,64.13
2022-12-03T11:44:32.202Z,64.24
2022-12-03T11:47:19.906Z,64.38
2022-12-03T11:50:28.077Z,64.43
2022-12-03T11:53:22.623Z,64.66
2022-12-03T11:56:22.764Z,64.66
2022-12-03T11:59:13.823Z,64.87
2022-12-03T12:02:01.497Z,65.06
2022-12-03T12:04:49.155Z,65.10
2022-12-03T12:07:37.275Z,65.15
2022-12-03T12:10:44.613Z,64.89
2022-12-03T12:13:33.819Z,65.04
2022-12-03T12:16:50.416Z,64.97
2022-12-03T12:19:43.133Z,64.84
2022-12-03T12:22:31.725Z,64.88
2022-12-03T12:25:36.510Z,64.86
2022-12-03T12:28:24.153Z,64.86
2022-12-03T12:31:11.891Z,64.83
2022-12-03T12:33:59.563Z,64.73
2022-12-03T12:36:47.267Z,64.88
2022-12-03T12:39:37.094Z,65.04
2022-12-03T12:42:43.088Z,64.76
2022-12-03T12:45:35.391Z,64.88
2022-12-03T12:48:27.519Z,64.96
2022-12-03T12:51:20.431Z,65.04
2022-12-03T12:54:13.252Z,65.15
2022-12-03T12:57:03.865Z,65.18
2022-12-03T12:59:53.764Z,65.32
2022-12-03T13:03:01.736Z,65.27
2022-12-03T13:05:51.207Z,65.29
2022-12-03T13:08:42.939Z,65.39
2022-12-03T13:11:37.134Z,65.43
2022-12-03T13:14:30.310Z,65.54
2022-12-03T13:17:24.526Z,65.52
2022-12-03T13:20:20.604Z,65.69
2022-12-03T13:23:35.228Z,65.50
2022-12-03T13:26:47.615Z,65.70
2022-12-03T13:29:35.295Z,65.64
2022-12-03T13:32:31.193Z,65.72
2022-12-03T13:35:35.544Z,65.63
2022-12-03T13:38:25.083Z,65.89
2022-12-03T13:41:36.300Z,65.73
2022-12-03T13:44:23.903Z,65.96
2022-12-03T13:47:18.566Z,65.90
2022-12-03T13:50:20.936Z,65.77
2022-12-03T13:53:11.541Z,66.03
2022-12-03T13:56:30.633Z,66.00
2022-12-03T13:59:24.513Z,65.90
2022-12-03T14:02:13.612Z,66.03
2022-12-03T14:05:01.312Z,65.88
2022-12-03T14:07:49.210Z,65.82
2022-12-03T14:10:36.761Z,66.14
2022-12-03T14:13:24.363Z,66.22
2022-12-03T14:16:12.044Z,66.21
2022-12-03T14:18:59.708Z,66.31
2022-12-03T14:21:47.352Z,66.33
2022-12-03T14:24:34.978Z,66.41
2022-12-03T14:27:24.589Z,66.45
2022-12-03T14:30:12.767Z,66.28
2022-12-03T14:33:00.360Z,66.32
2022-12-03T14:35:47.971Z,66.46
2022-12-03T14:38:35.658Z,66.40
2022-12-03T14:41:41.935Z,66.51
2022-12-03T14:44:29.546Z,66.50
2022-12-03T14:47:22.427Z,66.43
2022-12-03T14:50:14.202Z,66.50
2022-12-03T14:53:02.043Z,66.69
2022-12-03T14:55:50.239Z,66.78
2022-12-03T14:58:37.896Z,66.93
2022-12-03T15:01:25.720Z,67.00
2022-12-03T15:04:13.358Z,66.86
2022-12-03T15:07:00.972Z,66.80
2022-12-03T15:09:48.675Z,66.87
2022-12-03T15:12:36.275Z,66.89
2022-12-03T15:15:23.863Z,66.91
2022-12-03T15:18:11.441Z,66.91
2022-12-03T15:20:59.059Z,66.91
2022-12-03T15:23:46.715Z,67.00
2022-12-03T15:26:34.309Z,66.85
2022-12-03T15:29:21.921Z,66.81
2022-12-03T15:32:09.465Z,67.05
2022-12-03T15:34:57.087Z,66.98
2022-12-03T15:37:45.326Z,66.80
2022-12-03T15:40:33.050Z,66.69
2022-12-03T15:43:20.671Z,66.77
2022-12-03T15:46:08.308Z,66.83
2022-12-03T15:48:56.155Z,66.96
2022-12-03T15:51:43.837Z,66.66
2022-12-03T15:54:31.604Z,66.53
2022-12-03T15:57:19.218Z,66.70
2022-12-03T16:00:07.874Z,66.62
2022-12-03T16:02:59.965Z,66.77
2022-12-03T16:05:48.815Z,66.66
2022-12-03T16:08:36.544Z,66.65
2022-12-03T16:11:26.171Z,66.61
2022-12-03T16:14:13.821Z,66.60
2022-12-03T16:17:01.556Z,66.82
2022-12-03T16:19:49.273Z,66.62
2022-12-03T16:22:36.954Z,66.51
2022-12-03T16:25:24.548Z,66.49
2022-12-03T16:28:12.179Z,66.61
2022-12-03T16:30:59.876Z,66.53
2022-12-03T16:33:48.269Z,66.63
2022-12-03T16:36:35.879Z,66.56
2022-12-03T16:39:23.606Z,66.51
2022-12-03T16:42:16.972Z,66.84
2022-12-03T16:45:09.130Z,66.76
2022-12-03T16:47:56.838Z,67.23
2022-12-03T16:50:44.401Z,67.28
2022-12-03T16:53:32.012Z,67.05
2022-12-03T16:56:21.223Z,66.99
2022-12-03T16:59:08.891Z,66.85
2022-12-03T17:01:56.946Z,66.75
2022-12-03T17:04:44.676Z,66.56
2022-12-03T17:07:32.384Z,66.48
2022-12-03T17:10:20.007Z,66.60
2022-12-03T17:13:09.644Z,66.70
2022-12-03T17:15:58.688Z,66.83
2022-12-03T17:18:46.334Z,66.81
2022-12-03T17:21:35.214Z,66.72
2022-12-03T17:24:22.951Z,66.63
2022-12-03T17:27:12.625Z,66.58
2022-12-03T17:30:00.405Z,66.62
2022-12-03T17:32:50.386Z,66.51
2022-12-03T17:35:38.059Z,66.16
2022-12-03T17:38:25.686Z,66.26
2022-12-03T17:41:13.293Z,66.04
2022-12-03T17:44:04.708Z,66.15
2022-12-03T17:46:55.083Z,66.19
2022-12-03T17:49:42.873Z,66.29
2022-12-03T17:52:30.540Z,66.12
2022-12-03T17:55:28.124Z,66.09
2022-12-03T17:58:19.050Z,66.10
2022-12-03T18:01:08.577Z,65.98
2022-12-03T18:03:56.294Z,66.00
2022-12-03T18:06:43.976Z,66.03
2022-12-03T18:09:31.728Z,65.91
2022-12-03T18:12:19.341Z,65.93
2022-12-03T18:15:07.727Z,65.96
2022-12-03T18:17:55.357Z,66.15
2022-12-03T18:20:42.932Z,65.95
2022-12-03T18:23:31.199Z,65.95
2022-12-03T18:26:18.811Z,65.93
2022-12-03T18:29:06.389Z,65.92
2022-12-03T18:31:54.074Z,66.11
2022-12-03T18:34:45.146Z,65.93
2022-12-03T18:37:35.892Z,65.76
2022-12-03T18:40:27.320Z,65.86
2022-12-03T18:43:16.572Z,66.21
2022-12-03T18:46:25.301Z,65.95
2022-12-03T18:49:19.552Z,66.16
2022-12-03T18:52:07.512Z,66.22
2022-12-03T18:54:58.326Z,66.08
2022-12-03T18:57:46.207Z,66.22
2022-12-03T19:00:35.884Z,65.86
2022-12-03T19:03:23.817Z,66.21
2022-12-03T19:06:19.094Z,65.92
2022-12-03T19:09:07.342Z,65.71
2022-12-03T19:11:55.040Z,65.95
2022-12-03T19:14:42.899Z,66.07
2022-12-03T19:17:30.954Z,66.02
2022-12-03T19:20:18.657Z,66.13
2022-12-03T19:23:06.387Z,65.85
2022-12-03T19:26:02.347Z,65.87
2022-12-03T19:28:50.095Z,65.96
2022-12-03T19:31:38.016Z,65.97
2022-12-03T19:34:26.910Z,65.95
2022-12-03T19:37:14.885Z,65.77
2022-12-03T19:40:02.749Z,65.69
2022-12-03T19:42:51.810Z,65.89
2022-12-03T19:45:39.725Z,65.87
2022-12-03T19:48:32.764Z,66.12
2022-12-03T19:51:33.983Z,65.90
2022-12-03T19:54:22.721Z,66.01
2022-12-03T19:57:10.597Z,66.05
2022-12-03T19:59:58.552Z,65.97
2022-12-03T20:02:49.779Z,66.13
2022-12-03T20:05:40.334Z,66.00
2022-12-03T20:08:28.111Z,66.06
2022-12-03T20:11:22.973Z,65.84
2022-12-03T20:14:14.965Z,65.75
2022-12-03T20:17:02.657Z,65.88
2022-12-03T20:19:51.427Z,65.84
2022-12-03T20:22:39.190Z,65.88
2022-12-03T20:25:27.349Z,65.78
2022-12-03T20:28:21.972Z,66.03
2022-12-03T20:31:15.169Z,65.94
2022-12-03T20:34:09.370Z,65.90
2022-12-03T20:36:57.098Z,65.83
2022-12-03T20:39:44.877Z,65.68
2022-12-03T20:42:33.966Z,65.72
2022-12-03T20:45:21.925Z,65.67
2022-12-03T20:48:10.090Z,65.86
2022-12-03T20:50:57.819Z,65.77
2022-12-03T20:53:46.707Z,65.70
2022-12-03T20:56:39.461Z,65.88
2022-12-03T20:59:27.298Z,65.76
2022-12-03T21:02:15.233Z,66.09
2022-12-03T21:05:03.243Z,66.32
2022-12-03T21:07:52.498Z,65.95
2022-12-03T21:10:47.069Z,65.96
2022-12-03T21:13:35.010Z,66.07
2022-12-03T21:16:52.516Z,65.80
2022-12-03T21:19:38.189Z,65.86
2022-12-03T21:22:26.015Z,65.88
2022-12-03T21:25:27.950Z,65.82
2022-12-03T21:28:17.249Z,65.89
2022-12-03T21:31:11.187Z,65.96
2022-12-03T21:33:59.232Z,65.94
2022-12-03T21:36:46.948Z,66.11
2022-12-03T21:39:34.647Z,65.86
2022-12-03T21:42:36.556Z,66.09
2022-12-03T21:45:25.136Z,66.02
2022-12-03T21:48:14.080Z,65.72
2022-12-03T21:51:04.784Z,65.93
2022-12-03T21:53:52.548Z,65.87
2022-12-03T21:56:40.399Z,65.91
2022-12-03T21:59:28.105Z,65.88
2022-12-03T22:02:15.955Z,65.32
2022-12-03T22:05:03.958Z,65.57
2022-12-03T22:07:51.816Z,65.81
2022-12-03T22:10:39.990Z,65.71
2022-12-03T22:13:27.636Z,65.72
2022-12-03T22:16:20.937Z,65.50
2022-12-03T22:19:08.933Z,65.68
2022-12-03T22:21:59.629Z,65.61
2022-12-03T22:24:47.691Z,65.40
2022-12-03T22:27:37.883Z,65.46
2022-12-03T22:30:25.774Z,65.32
2022-12-03T22:33:13.647Z,65.53
2022-12-03T22:36:04.961Z,65.47
2022-12-03T22:38:53.444Z,65.60
2022-12-03T22:41:41.388Z,65.39
2022-12-03T22:44:29.431Z,65.50
2022-12-03T22:47:17.263Z,65.22
2022-12-03T22:50:05.594Z,65.30
2022-12-03T22:52:53.523Z,65.46
2022-12-03T22:55:42.060Z,65.20
2022-12-03T22:58:32.696Z,65.26
2022-12-03T23:01:30.313Z,65.25
2022-12-03T23:04:18.191Z,65.18
2022-12-03T23:07:08.199Z,65.48
2022-12-03T23:09:56.259Z,65.52
2022-12-03T23:12:44.131Z,65.41
2022-12-03T23:15:32.475Z,65.51
2022-12-03T23:18:20.863Z,65.42
2022-12-03T23:21:08.958Z,65.46
2022-12-03T23:23:57.114Z,65.38
2022-12-03T23:26:44.805Z,65.37
2022-12-03T23:29:34.927Z,65.44
2022-12-03T23:32:22.952Z,65.28
2022-12-03T23:35:12.492Z,65.35
2022-12-03T23:38:00.298Z,65.23
2022-12-03T23:40:48.628Z,65.44
2022-12-03T23:43:36.568Z,65.45
2022-12-03T23:46:28.493Z,65.56
2022-12-03T23:49:16.447Z,65.64
2022-12-03T23:52:04.384Z,65.50
2022-12-03T23:54:52.014Z,65.56
2022-12-03T23:57:39.800Z,65.28
